Saxaren — SKHW — position and weather

sailwx.info

Track history (hours):
 
Tides and Currents Weather Stations Pressure Air Temp Water Temp Dewpoint Dewpoint Depression Visibility Wind Speed Wind Dir Waves Ship Positions

Saxaren

Last reported at 2016-May-25 15:27 UTC. Time now 2016-May-26 02:51 UTC.
Position N 59°23' E 018°22'.

Length 38 m; draft 1.8 m.

Type: Passenger vessel. MMSI: 265512110.

Date/timePositionNaut miles runAvg speedWind from/ knotsBaromVisibWave heightAir tempDewpointWater temp
2016-May-25 15:27N 59°23' E 018°22'910.3
2016-May-25 14:32N 59°19' E 018°05'0 0.2
2016-May-25 13:34N 59°20' E 018°05'0 0.0
2016-May-25 12:33N 59°20' E 018°05'0 0.0
2016-May-25 11:32N 59°20' E 018°05'0 0.0
2016-May-25 10:34N 59°20' E 018°05'0 0.0
2016-May-25 09:33N 59°20' E 018°05'0 0.0
2016-May-25 08:34N 59°20' E 018°05'0 0.0
2016-May-25 07:34N 59°20' E 018°05'0 0.0
2016-May-25 06:32N 59°20' E 018°05'9 0.6
2016-May-24 15:33N 59°23' E 018°20'9 8.6
2016-May-24 14:32N 59°19' E 018°05'0 0.3
2016-May-24 13:23N 59°20' E 018°04'0 0.0
2016-May-24 12:31N 59°20' E 018°04'0 0.0
2016-May-24 11:34N 59°20' E 018°04'0 0.0
2016-May-24 10:33N 59°20' E 018°04'0 0.0
2016-May-24 09:33N 59°20' E 018°04'0 0.0
2016-May-24 08:27N 59°20' E 018°04'0 0.0
2016-May-24 07:32N 59°20' E 018°04'0 0.0
2016-May-24 06:18N 59°20' E 018°04'5 0.3
2016-May-23 15:12N 59°21' E 018°14'5 8.1
2016-May-23 14:33N 59°19' E 018°05'0 0.3
2016-May-23 13:33N 59°20' E 018°05'0 0.0
2016-May-23 12:33N 59°20' E 018°05'0 0.0
2016-May-23 11:33N 59°20' E 018°05'0 0.0
2016-May-23 10:33N 59°20' E 018°05'0 0.0
2016-May-23 09:33N 59°20' E 018°05'0 0.0
2016-May-23 08:33N 59°20' E 018°05'0 0.0
2016-May-23 07:33N 59°20' E 018°05'0 0.0
2016-May-23 06:33N 59°20' E 018°05'4 0.3
2016-May-22 19:33N 59°20' E 018°12'  
2016-May-20 11:28N 59°20' E 018°12'4 4.0
2016-May-20 10:33N 59°20' E 018°05'0 0.0
2016-May-20 09:30N 59°20' E 018°05'4 0.2
2016-May-19 13:28N 59°20' E 018°12'4 3.6
2016-May-19 12:27N 59°20' E 018°05'0 0.0
2016-May-19 11:33N 59°20' E 018°05'0 0.0
2016-May-19 10:33N 59°20' E 018°05'0 0.0
2016-May-19 09:33N 59°20' E 018°05'0 0.0
2016-May-19 08:30N 59°20' E 018°05'0 0.0
2016-May-19 07:33N 59°20' E 018°05'0 0.0
2016-May-19 06:33N 59°20' E 018°05'0 0.0
2016-May-18 14:33N 59°20' E 018°05'0 0.2
2016-May-18 13:33N 59°20' E 018°05'0 0.0
2016-May-18 12:33N 59°20' E 018°05'0 0.0
2016-May-18 11:33N 59°20' E 018°05'0 0.0
2016-May-18 10:33N 59°20' E 018°05'0 0.0
2016-May-18 09:33N 59°20' E 018°05'0 0.0
2016-May-18 08:34N 59°20' E 018°05'0 0.0
2016-May-18 07:33N 59°20' E 018°05'0 0.0
2016-May-18 06:33N 59°20' E 018°05'0 0.0
2016-May-17 14:33N 59°20' E 018°05'0 0.2
2016-May-17 13:34N 59°20' E 018°05'0 0.0
2016-May-17 12:33N 59°20' E 018°05'0 0.0
2016-May-17 11:33N 59°20' E 018°05'0 0.0
2016-May-17 10:21N 59°20' E 018°05'0 0.0
2016-May-17 09:26N 59°20' E 018°05'0 0.0
2016-May-17 08:33N 59°20' E 018°05'0 0.0
2016-May-17 07:33N 59°20' E 018°05'0 0.0
2016-May-17 06:33N 59°20' E 018°05'0 0.0
2016-May-16 14:32N 59°20' E 018°05'0 0.2
2016-May-16 13:30N 59°20' E 018°05'0 0.0
2016-May-16 12:33N 59°20' E 018°05'0 0.0
2016-May-16 11:33N 59°20' E 018°05'0 0.0
2016-May-16 10:25N 59°20' E 018°05'0 0.0
2016-May-16 09:33N 59°20' E 018°05'0 0.0
2016-May-16 08:33N 59°20' E 018°05'0 0.0
2016-May-16 07:33N 59°20' E 018°05'0 0.0
2016-May-16 06:33N 59°20' E 018°05'4 0.3
2016-May-15 19:25N 59°20' E 018°12'  
Track history (hours):
 
Tides and Currents Weather Stations Pressure Air Temp Water Temp Dewpoint Dewpoint Depression Visibility Wind Speed Wind Dir Waves Ship Positions

Saxaren

Last reported at 2016-May-25 15:27 UTC. Time now 2016-May-26 02:51 UTC.
Position N 59°23' E 018°22'.

Length 38 m; draft 1.8 m.

Type: Passenger vessel. MMSI: 265512110.

Date/timePositionNaut miles runAvg speedWind from/ knotsBaromVisibWave heightAir tempDewpointWater temp
2016-May-25 15:27N 59°23' E 018°22'910.3
2016-May-25 14:32N 59°19' E 018°05'0 0.2
2016-May-25 13:34N 59°20' E 018°05'0 0.0
2016-May-25 12:33N 59°20' E 018°05'0 0.0
2016-May-25 11:32N 59°20' E 018°05'0 0.0
2016-May-25 10:34N 59°20' E 018°05'0 0.0
2016-May-25 09:33N 59°20' E 018°05'0 0.0
2016-May-25 08:34N 59°20' E 018°05'0 0.0
2016-May-25 07:34N 59°20' E 018°05'0 0.0
2016-May-25 06:32N 59°20' E 018°05'9 0.6
2016-May-24 15:33N 59°23' E 018°20'9 8.6
2016-May-24 14:32N 59°19' E 018°05'0 0.3
2016-May-24 13:23N 59°20' E 018°04'0 0.0
2016-May-24 12:31N 59°20' E 018°04'0 0.0
2016-May-24 11:34N 59°20' E 018°04'0 0.0
2016-May-24 10:33N 59°20' E 018°04'0 0.0
2016-May-24 09:33N 59°20' E 018°04'0 0.0
2016-May-24 08:27N 59°20' E 018°04'0 0.0
2016-May-24 07:32N 59°20' E 018°04'0 0.0
2016-May-24 06:18N 59°20' E 018°04'5 0.3
2016-May-23 15:12N 59°21' E 018°14'5 8.1
2016-May-23 14:33N 59°19' E 018°05'0 0.3
2016-May-23 13:33N 59°20' E 018°05'0 0.0
2016-May-23 12:33N 59°20' E 018°05'0 0.0
2016-May-23 11:33N 59°20' E 018°05'0 0.0
2016-May-23 10:33N 59°20' E 018°05'0 0.0
2016-May-23 09:33N 59°20' E 018°05'0 0.0
2016-May-23 08:33N 59°20' E 018°05'0 0.0
2016-May-23 07:33N 59°20' E 018°05'0 0.0
2016-May-23 06:33N 59°20' E 018°05'4 0.3
2016-May-22 19:33N 59°20' E 018°12'  
2016-May-20 11:28N 59°20' E 018°12'4 4.0
2016-May-20 10:33N 59°20' E 018°05'0 0.0
2016-May-20 09:30N 59°20' E 018°05'4 0.2
2016-May-19 13:28N 59°20' E 018°12'4 3.6
2016-May-19 12:27N 59°20' E 018°05'0 0.0
2016-May-19 11:33N 59°20' E 018°05'0 0.0
2016-May-19 10:33N 59°20' E 018°05'0 0.0
2016-May-19 09:33N 59°20' E 018°05'0 0.0
2016-May-19 08:30N 59°20' E 018°05'0 0.0
2016-May-19 07:33N 59°20' E 018°05'0 0.0
2016-May-19 06:33N 59°20' E 018°05'0 0.0
2016-May-18 14:33N 59°20' E 018°05'0 0.2
2016-May-18 13:33N 59°20' E 018°05'0 0.0
2016-May-18 12:33N 59°20' E 018°05'0 0.0
2016-May-18 11:33N 59°20' E 018°05'0 0.0
2016-May-18 10:33N 59°20' E 018°05'0 0.0
2016-May-18 09:33N 59°20' E 018°05'0 0.0
2016-May-18 08:34N 59°20' E 018°05'0 0.0
2016-May-18 07:33N 59°20' E 018°05'0 0.0
2016-May-18 06:33N 59°20' E 018°05'0 0.0
2016-May-17 14:33N 59°20' E 018°05'0 0.2
2016-May-17 13:34N 59°20' E 018°05'0 0.0
2016-May-17 12:33N 59°20' E 018°05'0 0.0
2016-May-17 11:33N 59°20' E 018°05'0 0.0
2016-May-17 10:21N 59°20' E 018°05'0 0.0
2016-May-17 09:26N 59°20' E 018°05'0 0.0
2016-May-17 08:33N 59°20' E 018°05'0 0.0
2016-May-17 07:33N 59°20' E 018°05'0 0.0
2016-May-17 06:33N 59°20' E 018°05'0 0.0
2016-May-16 14:32N 59°20' E 018°05'0 0.2
2016-May-16 13:30N 59°20' E 018°05'0 0.0
2016-May-16 12:33N 59°20' E 018°05'0 0.0
2016-May-16 11:33N 59°20' E 018°05'0 0.0
2016-May-16 10:25N 59°20' E 018°05'0 0.0
2016-May-16 09:33N 59°20' E 018°05'0 0.0
2016-May-16 08:33N 59°20' E 018°05'0 0.0
2016-May-16 07:33N 59°20' E 018°05'0 0.0
2016-May-16 06:33N 59°20' E 018°05'4 0.3
2016-May-15 19:25N 59°20' E 018°12'  

Dump ship's entire track history